createdAt,value
2022-10-14T00:05:26.841Z,13.7
2022-10-14T00:19:26.937Z,13.2
2022-10-14T00:33:26.882Z,12.5
2022-10-14T00:47:26.895Z,12.4
2022-10-14T01:01:26.886Z,11.9
2022-10-14T01:15:26.884Z,11.4
2022-10-14T01:29:26.944Z,11.4
2022-10-14T01:43:26.909Z,12.1
2022-10-14T01:57:26.936Z,12.5
2022-10-14T02:11:27.059Z,11.8
2022-10-14T02:25:27.195Z,11.4
2022-10-14T02:39:27.200Z,11.0
2022-10-14T02:53:27.192Z,10.6
2022-10-14T03:07:27.224Z,10.3
2022-10-14T03:21:27.235Z,10.3
2022-10-14T03:35:27.238Z,9.9
2022-10-14T03:49:27.237Z,9.8
2022-10-14T04:03:27.529Z,9.9
2022-10-14T04:17:27.627Z,10.1
2022-10-14T04:31:27.959Z,10.0
2022-10-14T04:45:27.971Z,10.2
2022-10-14T04:59:27.945Z,10.3
2022-10-14T05:13:27.968Z,10.4
2022-10-14T05:28:28.037Z,10.2
2022-10-14T05:43:31.962Z,9.9
2022-10-14T05:58:28.173Z,9.9
2022-10-14T06:13:28.183Z,9.8
2022-10-14T06:28:28.228Z,10.2
2022-10-14T06:43:28.218Z,11.1
2022-10-14T06:58:28.210Z,12.3
2022-10-14T07:13:28.227Z,13.5
2022-10-14T07:28:28.391Z,17.3
2022-10-14T07:43:28.653Z,19.7
2022-10-14T07:58:28.736Z,20.3
2022-10-14T08:13:28.751Z,21.2
2022-10-14T08:28:28.811Z,22.0
2022-10-14T08:43:28.767Z,22.4
2022-10-14T08:58:28.916Z,21.7
2022-10-14T09:14:28.776Z,21.7
2022-10-14T09:29:28.778Z,21.7
2022-10-14T09:44:28.781Z,21.9
2022-10-14T09:59:28.821Z,21.3
2022-10-14T10:14:28.846Z,20.6
2022-10-14T10:29:28.889Z,20.5
2022-10-14T10:44:28.910Z,20.8
2022-10-14T10:50:14.342Z,20.8
2022-10-14T11:05:14.262Z,21.1
2022-10-14T11:20:14.762Z,22.1
2022-10-14T11:35:14.356Z,22.1
2022-10-14T11:50:14.401Z,22.2
2022-10-14T12:05:14.508Z,22.5
2022-10-14T12:20:14.442Z,23.2
2022-10-14T12:35:14.498Z,23.5
2022-10-14T12:51:15.016Z,23.6
2022-10-14T13:06:14.732Z,23.2
2022-10-14T13:21:15.171Z,23.3
2022-10-14T13:36:14.853Z,23.2
2022-10-14T13:51:24.099Z,22.7
2022-10-14T14:06:14.761Z,21.9
2022-10-14T14:21:14.868Z,22.0
2022-10-14T14:36:18.227Z,22.3
2022-10-14T14:51:16.302Z,22.2
2022-10-14T15:06:14.879Z,21.6
2022-10-14T15:22:14.974Z,20.7
2022-10-14T15:37:15.093Z,20.0
2022-10-14T15:52:15.080Z,18.8
2022-10-14T16:07:15.095Z,17.6
2022-10-14T16:22:15.632Z,17.0
2022-10-14T16:37:15.446Z,16.3
2022-10-14T16:52:15.426Z,15.9
2022-10-14T17:07:15.572Z,15.8
2022-10-14T17:21:15.594Z,15.5
2022-10-14T17:35:15.610Z,15.8
2022-10-14T17:49:15.844Z,16.0
2022-10-14T18:03:15.665Z,14.8
2022-10-14T18:17:15.751Z,14.3
2022-10-14T18:31:15.753Z,13.8
2022-10-14T18:45:15.876Z,13.4
2022-10-14T18:59:15.794Z,13.0
2022-10-14T19:13:15.887Z,12.8
2022-10-14T19:27:15.821Z,12.6
2022-10-14T19:41:15.910Z,12.3
2022-10-14T19:55:15.936Z,12.4
2022-10-14T20:09:15.937Z,12.2
2022-10-14T20:23:15.931Z,12.2
2022-10-14T20:37:15.949Z,12.2
2022-10-14T20:51:16.006Z,11.8
2022-10-14T21:05:16.039Z,11.5
2022-10-14T21:19:15.956Z,12.0
2022-10-14T21:33:16.014Z,11.6
2022-10-14T21:47:15.975Z,11.4
2022-10-14T22:01:16.038Z,11.1
2022-10-14T22:15:16.002Z,11.2
2022-10-14T22:29:15.985Z,11.5
2022-10-14T22:43:15.987Z,11.1
2022-10-14T22:57:15.992Z,10.9
2022-10-14T23:11:16.008Z,11.0
2022-10-14T23:25:15.968Z,11.3
2022-10-14T23:39:15.974Z,11.2
2022-10-14T23:53:16.067Z,11.1
